sensor_id;sensor_type;location;lat;lon;timestamp;P1;durP1;ratioP1;P2;durP2;ratioP2
19679;SDS011;9989;48.962;9.182;2022-07-05T00:00:12;6.20;;;3.80;;
19679;SDS011;9989;48.962;9.182;2022-07-05T00:02:39;7.70;;;4.03;;
19679;SDS011;9989;48.962;9.182;2022-07-05T00:05:04;7.07;;;3.87;;
19679;SDS011;9989;48.962;9.182;2022-07-05T00:07:30;6.40;;;3.40;;
19679;SDS011;9989;48.962;9.182;2022-07-05T00:09:56;8.30;;;3.90;;
19679;SDS011;9989;48.962;9.182;2022-07-05T00:12:23;5.90;;;3.20;;
19679;SDS011;9989;48.962;9.182;2022-07-05T00:14:51;6.53;;;3.60;;
19679;SDS011;9989;48.962;9.182;2022-07-05T00:17:17;9.00;;;3.80;;
19679;SDS011;9989;48.962;9.182;2022-07-05T00:19:43;6.57;;;3.70;;
19679;SDS011;9989;48.962;9.182;2022-07-05T00:22:09;6.47;;;3.57;;
19679;SDS011;9989;48.962;9.182;2022-07-05T00:24:34;8.23;;;4.43;;
19679;SDS011;9989;48.962;9.182;2022-07-05T00:27:00;7.87;;;3.50;;
19679;SDS011;9989;48.962;9.182;2022-07-05T00:29:26;8.27;;;4.10;;
19679;SDS011;9989;48.962;9.182;2022-07-05T00:31:52;6.90;;;3.90;;
19679;SDS011;9989;48.962;9.182;2022-07-05T00:34:18;6.90;;;3.73;;
19679;SDS011;9989;48.962;9.182;2022-07-05T00:36:43;6.70;;;3.60;;
19679;SDS011;9989;48.962;9.182;2022-07-05T00:39:09;6.50;;;3.43;;
19679;SDS011;9989;48.962;9.182;2022-07-05T00:41:35;6.57;;;3.77;;
19679;SDS011;9989;48.962;9.182;2022-07-05T00:44:04;5.87;;;3.33;;
19679;SDS011;9989;48.962;9.182;2022-07-05T00:46:32;6.97;;;3.90;;
19679;SDS011;9989;48.962;9.182;2022-07-05T00:48:59;7.50;;;4.00;;
19679;SDS011;9989;48.962;9.182;2022-07-05T00:51:25;6.73;;;4.00;;
19679;SDS011;9989;48.962;9.182;2022-07-05T00:53:53;8.53;;;4.33;;
19679;SDS011;9989;48.962;9.182;2022-07-05T00:56:19;11.17;;;3.87;;
19679;SDS011;9989;48.962;9.182;2022-07-05T00:58:48;6.67;;;3.50;;
19679;SDS011;9989;48.962;9.182;2022-07-05T01:01:14;7.13;;;3.90;;
19679;SDS011;9989;48.962;9.182;2022-07-05T01:03:41;9.43;;;4.43;;
19679;SDS011;9989;48.962;9.182;2022-07-05T01:06:07;7.03;;;3.50;;
19679;SDS011;9989;48.962;9.182;2022-07-05T01:08:35;6.53;;;3.40;;
19679;SDS011;9989;48.962;9.182;2022-07-05T01:11:04;7.97;;;3.70;;
19679;SDS011;9989;48.962;9.182;2022-07-05T01:13:29;6.00;;;3.40;;
19679;SDS011;9989;48.962;9.182;2022-07-05T01:15:55;7.40;;;3.90;;
19679;SDS011;9989;48.962;9.182;2022-07-05T01:18:21;6.97;;;3.73;;
19679;SDS011;9989;48.962;9.182;2022-07-05T01:20:50;6.70;;;3.70;;
19679;SDS011;9989;48.962;9.182;2022-07-05T01:23:17;8.37;;;3.93;;
19679;SDS011;9989;48.962;9.182;2022-07-05T01:25:44;8.17;;;3.90;;
19679;SDS011;9989;48.962;9.182;2022-07-05T01:28:13;6.90;;;3.67;;
19679;SDS011;9989;48.962;9.182;2022-07-05T01:30:39;7.20;;;3.60;;
19679;SDS011;9989;48.962;9.182;2022-07-05T01:33:07;9.27;;;4.17;;
19679;SDS011;9989;48.962;9.182;2022-07-05T01:35:33;6.67;;;3.90;;
19679;SDS011;9989;48.962;9.182;2022-07-05T01:38:00;6.50;;;3.50;;
19679;SDS011;9989;48.962;9.182;2022-07-05T01:40:26;6.70;;;3.67;;
19679;SDS011;9989;48.962;9.182;2022-07-05T01:42:51;7.87;;;3.80;;
19679;SDS011;9989;48.962;9.182;2022-07-05T01:45:18;6.83;;;3.83;;
19679;SDS011;9989;48.962;9.182;2022-07-05T01:48:04;8.30;;;3.90;;
19679;SDS011;9989;48.962;9.182;2022-07-05T01:50:33;7.90;;;3.63;;
19679;SDS011;9989;48.962;9.182;2022-07-05T01:53:05;7.47;;;3.73;;
19679;SDS011;9989;48.962;9.182;2022-07-05T01:55:36;6.50;;;3.60;;
19679;SDS011;9989;48.962;9.182;2022-07-05T01:58:02;6.10;;;3.50;;
19679;SDS011;9989;48.962;9.182;2022-07-05T02:00:28;8.20;;;4.20;;
19679;SDS011;9989;48.962;9.182;2022-07-05T02:02:53;6.80;;;3.90;;
19679;SDS011;9989;48.962;9.182;2022-07-05T02:05:21;7.23;;;3.93;;
19679;SDS011;9989;48.962;9.182;2022-07-05T02:07:47;6.50;;;3.60;;
19679;SDS011;9989;48.962;9.182;2022-07-05T02:10:13;7.43;;;3.93;;
19679;SDS011;9989;48.962;9.182;2022-07-05T02:12:39;7.63;;;3.90;;
19679;SDS011;9989;48.962;9.182;2022-07-05T02:15:04;6.70;;;3.57;;
19679;SDS011;9989;48.962;9.182;2022-07-05T02:17:30;6.77;;;3.53;;
19679;SDS011;9989;48.962;9.182;2022-07-05T02:19:56;6.77;;;3.80;;
19679;SDS011;9989;48.962;9.182;2022-07-05T02:22:22;7.20;;;3.97;;
19679;SDS011;9989;48.962;9.182;2022-07-05T02:24:48;7.17;;;4.20;;
19679;SDS011;9989;48.962;9.182;2022-07-05T02:27:14;6.57;;;3.77;;
19679;SDS011;9989;48.962;9.182;2022-07-05T02:29:39;6.30;;;3.60;;
19679;SDS011;9989;48.962;9.182;2022-07-05T02:32:05;7.23;;;3.93;;
19679;SDS011;9989;48.962;9.182;2022-07-05T02:34:31;7.30;;;3.83;;
19679;SDS011;9989;48.962;9.182;2022-07-05T02:36:56;6.47;;;3.50;;
19679;SDS011;9989;48.962;9.182;2022-07-05T02:39:22;6.00;;;3.53;;
19679;SDS011;9989;48.962;9.182;2022-07-05T02:41:47;6.23;;;3.77;;
19679;SDS011;9989;48.962;9.182;2022-07-05T02:44:13;6.87;;;3.70;;
19679;SDS011;9989;48.962;9.182;2022-07-05T02:46:38;8.47;;;3.90;;
19679;SDS011;9989;48.962;9.182;2022-07-05T02:49:04;7.30;;;3.90;;
19679;SDS011;9989;48.962;9.182;2022-07-05T02:51:30;8.17;;;3.80;;
19679;SDS011;9989;48.962;9.182;2022-07-05T02:53:55;7.07;;;4.27;;
19679;SDS011;9989;48.962;9.182;2022-07-05T02:56:21;6.17;;;3.40;;
19679;SDS011;9989;48.962;9.182;2022-07-05T02:58:46;8.40;;;3.97;;
19679;SDS011;9989;48.962;9.182;2022-07-05T03:01:12;7.03;;;4.00;;
19679;SDS011;9989;48.962;9.182;2022-07-05T03:03:37;6.90;;;4.10;;
19679;SDS011;9989;48.962;9.182;2022-07-05T03:06:03;7.23;;;4.20;;
19679;SDS011;9989;48.962;9.182;2022-07-05T03:08:29;7.00;;;3.90;;
19679;SDS011;9989;48.962;9.182;2022-07-05T03:10:54;7.07;;;3.97;;
19679;SDS011;9989;48.962;9.182;2022-07-05T03:13:20;6.97;;;4.17;;
19679;SDS011;9989;48.962;9.182;2022-07-05T03:15:45;13.60;;;4.33;;
19679;SDS011;9989;48.962;9.182;2022-07-05T03:18:11;7.60;;;4.40;;
19679;SDS011;9989;48.962;9.182;2022-07-05T03:20:37;7.13;;;4.33;;
19679;SDS011;9989;48.962;9.182;2022-07-05T03:23:02;7.83;;;3.80;;
19679;SDS011;9989;48.962;9.182;2022-07-05T03:25:28;8.40;;;4.17;;
19679;SDS011;9989;48.962;9.182;2022-07-05T03:27:53;7.80;;;4.60;;
19679;SDS011;9989;48.962;9.182;2022-07-05T03:30:19;8.07;;;3.90;;
19679;SDS011;9989;48.962;9.182;2022-07-05T03:32:45;7.43;;;3.77;;
19679;SDS011;9989;48.962;9.182;2022-07-05T03:35:10;7.60;;;4.20;;
19679;SDS011;9989;48.962;9.182;2022-07-05T03:37:36;7.77;;;3.90;;
19679;SDS011;9989;48.962;9.182;2022-07-05T03:40:02;8.07;;;4.00;;
19679;SDS011;9989;48.962;9.182;2022-07-05T03:42:28;7.77;;;3.87;;
19679;SDS011;9989;48.962;9.182;2022-07-05T03:44:54;6.90;;;4.07;;
19679;SDS011;9989;48.962;9.182;2022-07-05T03:47:19;7.27;;;4.17;;
19679;SDS011;9989;48.962;9.182;2022-07-05T03:49:45;7.70;;;4.13;;
19679;SDS011;9989;48.962;9.182;2022-07-05T03:52:11;6.87;;;4.10;;
19679;SDS011;9989;48.962;9.182;2022-07-05T03:54:36;8.97;;;4.03;;
19679;SDS011;9989;48.962;9.182;2022-07-05T03:57:02;6.77;;;3.83;;
19679;SDS011;9989;48.962;9.182;2022-07-05T03:59:28;7.10;;;4.10;;
19679;SDS011;9989;48.962;9.182;2022-07-05T04:01:53;9.50;;;3.50;;
19679;SDS011;9989;48.962;9.182;2022-07-05T04:04:19;7.73;;;4.27;;
19679;SDS011;9989;48.962;9.182;2022-07-05T04:06:45;7.30;;;4.37;;
19679;SDS011;9989;48.962;9.182;2022-07-05T04:09:10;8.17;;;4.33;;
19679;SDS011;9989;48.962;9.182;2022-07-05T04:11:36;6.90;;;3.97;;
19679;SDS011;9989;48.962;9.182;2022-07-05T04:14:02;7.13;;;3.77;;
19679;SDS011;9989;48.962;9.182;2022-07-05T04:16:27;7.50;;;3.83;;
19679;SDS011;9989;48.962;9.182;2022-07-05T04:18:53;8.43;;;4.10;;
19679;SDS011;9989;48.962;9.182;2022-07-05T04:21:19;7.83;;;4.20;;
19679;SDS011;9989;48.962;9.182;2022-07-05T04:23:44;7.37;;;3.83;;
19679;SDS011;9989;48.962;9.182;2022-07-05T04:26:10;7.00;;;4.00;;
19679;SDS011;9989;48.962;9.182;2022-07-05T04:28:35;7.30;;;4.20;;
19679;SDS011;9989;48.962;9.182;2022-07-05T04:31:01;7.00;;;3.77;;
19679;SDS011;9989;48.962;9.182;2022-07-05T04:33:27;7.47;;;3.70;;
19679;SDS011;9989;48.962;9.182;2022-07-05T04:35:52;6.93;;;3.80;;
19679;SDS011;9989;48.962;9.182;2022-07-05T04:38:18;8.47;;;4.33;;
19679;SDS011;9989;48.962;9.182;2022-07-05T04:40:44;6.60;;;3.70;;
19679;SDS011;9989;48.962;9.182;2022-07-05T04:43:09;7.93;;;4.10;;
19679;SDS011;9989;48.962;9.182;2022-07-05T04:45:35;7.27;;;3.60;;
19679;SDS011;9989;48.962;9.182;2022-07-05T04:48:00;6.47;;;3.83;;
19679;SDS011;9989;48.962;9.182;2022-07-05T04:50:26;7.80;;;4.07;;
19679;SDS011;9989;48.962;9.182;2022-07-05T04:52:52;9.27;;;4.40;;
19679;SDS011;9989;48.962;9.182;2022-07-05T04:55:18;5.90;;;3.40;;
19679;SDS011;9989;48.962;9.182;2022-07-05T04:57:44;7.27;;;4.07;;
19679;SDS011;9989;48.962;9.182;2022-07-05T05:00:10;7.77;;;3.60;;
19679;SDS011;9989;48.962;9.182;2022-07-05T05:02:38;8.47;;;4.53;;
19679;SDS011;9989;48.962;9.182;2022-07-05T05:05:04;8.13;;;4.53;;
19679;SDS011;9989;48.962;9.182;2022-07-05T05:07:30;7.13;;;4.20;;
19679;SDS011;9989;48.962;9.182;2022-07-05T05:09:55;11.20;;;4.93;;
19679;SDS011;9989;48.962;9.182;2022-07-05T05:12:21;9.87;;;5.10;;
19679;SDS011;9989;48.962;9.182;2022-07-05T05:14:47;9.57;;;4.60;;
19679;SDS011;9989;48.962;9.182;2022-07-05T05:17:13;8.00;;;4.27;;
19679;SDS011;9989;48.962;9.182;2022-07-05T05:19:39;7.27;;;3.60;;
19679;SDS011;9989;48.962;9.182;2022-07-05T05:22:05;6.87;;;3.57;;
19679;SDS011;9989;48.962;9.182;2022-07-05T05:24:30;7.20;;;3.93;;
19679;SDS011;9989;48.962;9.182;2022-07-05T05:26:59;6.67;;;4.00;;
19679;SDS011;9989;48.962;9.182;2022-07-05T05:29:25;10.37;;;4.70;;
19679;SDS011;9989;48.962;9.182;2022-07-05T05:31:51;8.67;;;4.47;;
19679;SDS011;9989;48.962;9.182;2022-07-05T05:34:16;7.60;;;4.50;;
19679;SDS011;9989;48.962;9.182;2022-07-05T05:36:42;8.07;;;5.47;;
19679;SDS011;9989;48.962;9.182;2022-07-05T05:39:08;10.13;;;4.80;;
19679;SDS011;9989;48.962;9.182;2022-07-05T05:41:33;8.93;;;4.67;;
19679;SDS011;9989;48.962;9.182;2022-07-05T05:43:59;8.97;;;5.53;;
19679;SDS011;9989;48.962;9.182;2022-07-05T05:46:24;9.23;;;5.13;;
19679;SDS011;9989;48.962;9.182;2022-07-05T05:48:50;9.43;;;4.60;;
19679;SDS011;9989;48.962;9.182;2022-07-05T05:51:15;10.37;;;5.63;;
19679;SDS011;9989;48.962;9.182;2022-07-05T05:53:41;9.97;;;4.17;;
19679;SDS011;9989;48.962;9.182;2022-07-05T05:56:10;10.57;;;5.50;;
19679;SDS011;9989;48.962;9.182;2022-07-05T05:58:35;8.93;;;4.50;;
19679;SDS011;9989;48.962;9.182;2022-07-05T06:01:01;6.97;;;3.43;;
19679;SDS011;9989;48.962;9.182;2022-07-05T06:03:26;8.63;;;4.23;;
19679;SDS011;9989;48.962;9.182;2022-07-05T06:05:53;7.40;;;3.70;;
19679;SDS011;9989;48.962;9.182;2022-07-05T06:08:19;7.83;;;3.80;;
19679;SDS011;9989;48.962;9.182;2022-07-05T06:10:45;9.50;;;4.50;;
19679;SDS011;9989;48.962;9.182;2022-07-05T06:13:11;9.90;;;4.47;;
19679;SDS011;9989;48.962;9.182;2022-07-05T06:15:38;8.37;;;3.40;;
19679;SDS011;9989;48.962;9.182;2022-07-05T06:18:04;7.43;;;3.67;;
19679;SDS011;9989;48.962;9.182;2022-07-05T06:20:32;7.33;;;3.60;;
19679;SDS011;9989;48.962;9.182;2022-07-05T06:23:00;5.60;;;2.87;;
19679;SDS011;9989;48.962;9.182;2022-07-05T06:25:26;6.30;;;3.37;;
19679;SDS011;9989;48.962;9.182;2022-07-05T06:27:57;6.70;;;3.00;;
19679;SDS011;9989;48.962;9.182;2022-07-05T06:30:27;6.57;;;3.10;;
19679;SDS011;9989;48.962;9.182;2022-07-05T06:32:54;6.93;;;3.60;;
19679;SDS011;9989;48.962;9.182;2022-07-05T06:35:21;5.20;;;2.80;;
19679;SDS011;9989;48.962;9.182;2022-07-05T06:37:51;6.90;;;3.10;;
19679;SDS011;9989;48.962;9.182;2022-07-05T06:40:21;5.50;;;2.80;;
19679;SDS011;9989;48.962;9.182;2022-07-05T06:42:50;9.67;;;3.43;;
19679;SDS011;9989;48.962;9.182;2022-07-05T06:45:16;6.13;;;2.97;;
19679;SDS011;9989;48.962;9.182;2022-07-05T06:47:41;6.30;;;2.77;;
19679;SDS011;9989;48.962;9.182;2022-07-05T06:50:08;5.53;;;2.90;;
19679;SDS011;9989;48.962;9.182;2022-07-05T06:52:35;7.80;;;3.37;;
19679;SDS011;9989;48.962;9.182;2022-07-05T06:55:02;8.03;;;2.77;;
19679;SDS011;9989;48.962;9.182;2022-07-05T06:57:28;5.30;;;2.43;;
19679;SDS011;9989;48.962;9.182;2022-07-05T06:59:54;5.87;;;2.80;;
19679;SDS011;9989;48.962;9.182;2022-07-05T07:02:20;5.63;;;2.57;;
19679;SDS011;9989;48.962;9.182;2022-07-05T07:04:46;10.50;;;3.30;;
19679;SDS011;9989;48.962;9.182;2022-07-05T07:07:12;5.73;;;3.10;;
19679;SDS011;9989;48.962;9.182;2022-07-05T07:10:00;7.53;;;2.80;;
19679;SDS011;9989;48.962;9.182;2022-07-05T07:12:27;11.93;;;3.13;;
19679;SDS011;9989;48.962;9.182;2022-07-05T07:14:54;4.43;;;2.30;;
19679;SDS011;9989;48.962;9.182;2022-07-05T07:17:19;5.60;;;2.70;;
19679;SDS011;9989;48.962;9.182;2022-07-05T07:19:48;4.47;;;2.20;;
19679;SDS011;9989;48.962;9.182;2022-07-05T07:22:14;4.40;;;2.10;;
19679;SDS011;9989;48.962;9.182;2022-07-05T07:24:39;8.03;;;3.10;;
19679;SDS011;9989;48.962;9.182;2022-07-05T07:27:05;6.73;;;2.43;;
19679;SDS011;9989;48.962;9.182;2022-07-05T07:29:33;8.43;;;2.47;;
19679;SDS011;9989;48.962;9.182;2022-07-05T07:32:00;5.13;;;2.47;;
19679;SDS011;9989;48.962;9.182;2022-07-05T07:34:27;4.83;;;2.30;;
19679;SDS011;9989;48.962;9.182;2022-07-05T07:36:53;7.17;;;2.90;;
19679;SDS011;9989;48.962;9.182;2022-07-05T07:39:20;4.93;;;2.23;;
19679;SDS011;9989;48.962;9.182;2022-07-05T07:41:46;6.73;;;2.27;;
19679;SDS011;9989;48.962;9.182;2022-07-05T07:44:12;6.00;;;2.83;;
19679;SDS011;9989;48.962;9.182;2022-07-05T07:46:37;6.70;;;3.10;;
19679;SDS011;9989;48.962;9.182;2022-07-05T07:49:06;6.27;;;2.57;;
19679;SDS011;9989;48.962;9.182;2022-07-05T07:51:36;7.45;;;2.60;;
19679;SDS011;9989;48.962;9.182;2022-07-05T07:54:02;5.47;;;2.50;;
19679;SDS011;9989;48.962;9.182;2022-07-05T07:56:27;5.33;;;2.87;;
19679;SDS011;9989;48.962;9.182;2022-07-05T07:58:53;5.93;;;2.60;;
19679;SDS011;9989;48.962;9.182;2022-07-05T08:01:19;8.33;;;3.40;;
19679;SDS011;9989;48.962;9.182;2022-07-05T08:03:45;7.03;;;3.00;;
19679;SDS011;9989;48.962;9.182;2022-07-05T08:06:11;6.80;;;2.67;;
19679;SDS011;9989;48.962;9.182;2022-07-05T08:08:39;5.30;;;2.57;;
19679;SDS011;9989;48.962;9.182;2022-07-05T08:11:06;5.30;;;2.73;;
19679;SDS011;9989;48.962;9.182;2022-07-05T08:13:33;5.87;;;2.30;;
19679;SDS011;9989;48.962;9.182;2022-07-05T08:15:59;4.70;;;2.50;;
19679;SDS011;9989;48.962;9.182;2022-07-05T08:18:25;4.97;;;2.40;;
19679;SDS011;9989;48.962;9.182;2022-07-05T08:21:09;6.17;;;2.73;;
19679;SDS011;9989;48.962;9.182;2022-07-05T08:23:53;3.93;;;2.30;;
19679;SDS011;9989;48.962;9.182;2022-07-05T08:26:19;4.00;;;2.20;;
19679;SDS011;9989;48.962;9.182;2022-07-05T08:28:44;6.47;;;2.30;;
19679;SDS011;9989;48.962;9.182;2022-07-05T08:31:10;4.43;;;2.10;;
19679;SDS011;9989;48.962;9.182;2022-07-05T08:33:36;5.27;;;2.57;;
19679;SDS011;9989;48.962;9.182;2022-07-05T08:36:01;4.93;;;2.33;;
19679;SDS011;9989;48.962;9.182;2022-07-05T08:38:27;5.97;;;2.40;;
19679;SDS011;9989;48.962;9.182;2022-07-05T08:40:54;5.77;;;2.10;;
19679;SDS011;9989;48.962;9.182;2022-07-05T08:43:21;5.20;;;2.30;;
19679;SDS011;9989;48.962;9.182;2022-07-05T08:45:49;5.90;;;2.50;;
19679;SDS011;9989;48.962;9.182;2022-07-05T08:48:18;5.23;;;2.10;;
19679;SDS011;9989;48.962;9.182;2022-07-05T08:50:46;3.67;;;2.00;;
19679;SDS011;9989;48.962;9.182;2022-07-05T08:53:17;6.33;;;2.50;;
19679;SDS011;9989;48.962;9.182;2022-07-05T08:55:44;5.47;;;2.40;;
19679;SDS011;9989;48.962;9.182;2022-07-05T08:58:10;4.43;;;2.07;;
19679;SDS011;9989;48.962;9.182;2022-07-05T09:00:36;5.27;;;2.50;;
19679;SDS011;9989;48.962;9.182;2022-07-05T09:03:03;5.37;;;2.67;;
19679;SDS011;9989;48.962;9.182;2022-07-05T09:05:30;5.07;;;2.10;;
19679;SDS011;9989;48.962;9.182;2022-07-05T09:08:01;5.10;;;2.50;;
19679;SDS011;9989;48.962;9.182;2022-07-05T09:10:28;4.63;;;2.30;;
19679;SDS011;9989;48.962;9.182;2022-07-05T09:12:55;5.23;;;2.43;;
19679;SDS011;9989;48.962;9.182;2022-07-05T09:15:22;5.13;;;2.20;;
19679;SDS011;9989;48.962;9.182;2022-07-05T09:17:48;6.87;;;1.97;;
19679;SDS011;9989;48.962;9.182;2022-07-05T09:20:15;5.87;;;2.10;;
19679;SDS011;9989;48.962;9.182;2022-07-05T09:22:46;5.80;;;2.30;;
19679;SDS011;9989;48.962;9.182;2022-07-05T09:27:49;6.17;;;2.80;;
19679;SDS011;9989;48.962;9.182;2022-07-05T09:33:00;6.03;;;2.20;;
19679;SDS011;9989;48.962;9.182;2022-07-05T09:35:27;5.03;;;2.10;;
19679;SDS011;9989;48.962;9.182;2022-07-05T09:37:53;5.33;;;2.00;;
19679;SDS011;9989;48.962;9.182;2022-07-05T09:40:19;5.30;;;2.17;;
19679;SDS011;9989;48.962;9.182;2022-07-05T09:42:45;3.73;;;1.87;;
19679;SDS011;9989;48.962;9.182;2022-07-05T09:45:10;3.67;;;1.90;;
19679;SDS011;9989;48.962;9.182;2022-07-05T09:47:36;3.73;;;2.13;;
19679;SDS011;9989;48.962;9.182;2022-07-05T09:50:01;6.60;;;2.17;;
19679;SDS011;9989;48.962;9.182;2022-07-05T09:52:35;6.30;;;2.57;;
19679;SDS011;9989;48.962;9.182;2022-07-05T09:57:31;4.37;;;2.20;;
19679;SDS011;9989;48.962;9.182;2022-07-05T09:59:58;3.97;;;2.00;;
19679;SDS011;9989;48.962;9.182;2022-07-05T10:05:34;3.87;;;1.90;;
19679;SDS011;9989;48.962;9.182;2022-07-05T10:08:00;4.73;;;2.00;;
19679;SDS011;9989;48.962;9.182;2022-07-05T10:10:28;4.10;;;2.10;;
19679;SDS011;9989;48.962;9.182;2022-07-05T10:12:59;5.40;;;2.00;;
19679;SDS011;9989;48.962;9.182;2022-07-05T10:15:34;4.60;;;1.80;;
19679;SDS011;9989;48.962;9.182;2022-07-05T10:23:03;4.03;;;1.90;;
19679;SDS011;9989;48.962;9.182;2022-07-05T10:25:30;7.47;;;1.90;;
19679;SDS011;9989;48.962;9.182;2022-07-05T10:27:56;4.33;;;1.67;;
19679;SDS011;9989;48.962;9.182;2022-07-05T10:30:23;2.23;;;1.50;;
19679;SDS011;9989;48.962;9.182;2022-07-05T10:32:50;3.90;;;1.73;;
19679;SDS011;9989;48.962;9.182;2022-07-05T10:35:16;4.10;;;1.73;;
19679;SDS011;9989;48.962;9.182;2022-07-05T10:37:42;3.37;;;1.70;;
19679;SDS011;9989;48.962;9.182;2022-07-05T10:40:09;5.30;;;1.70;;
19679;SDS011;9989;48.962;9.182;2022-07-05T10:43:08;4.33;;;1.70;;
19679;SDS011;9989;48.962;9.182;2022-07-05T10:45:35;2.73;;;1.40;;
19679;SDS011;9989;48.962;9.182;2022-07-05T10:55:56;3.50;;;1.57;;
19679;SDS011;9989;48.962;9.182;2022-07-05T11:06:45;4.60;;;1.83;;
19679;SDS011;9989;48.962;9.182;2022-07-05T11:16:48;4.23;;;1.80;;
19679;SDS011;9989;48.962;9.182;2022-07-05T11:20:37;3.37;;;1.77;;
19679;SDS011;9989;48.962;9.182;2022-07-05T11:22:36;4.30;;;1.80;;
19679;SDS011;9989;48.962;9.182;2022-07-05T11:25:05;2.77;;;1.40;;
19679;SDS011;9989;48.962;9.182;2022-07-05T11:27:31;4.63;;;1.90;;
19679;SDS011;9989;48.962;9.182;2022-07-05T11:29:58;5.17;;;1.90;;
19679;SDS011;9989;48.962;9.182;2022-07-05T11:35:17;7.70;;;1.90;;
19679;SDS011;9989;48.962;9.182;2022-07-05T11:40:34;5.40;;;2.00;;
19679;SDS011;9989;48.962;9.182;2022-07-05T11:43:03;3.93;;;1.80;;
19679;SDS011;9989;48.962;9.182;2022-07-05T11:45:32;3.13;;;1.50;;
19679;SDS011;9989;48.962;9.182;2022-07-05T11:47:57;2.90;;;1.53;;
19679;SDS011;9989;48.962;9.182;2022-07-05T11:50:30;2.60;;;1.60;;
19679;SDS011;9989;48.962;9.182;2022-07-05T11:52:58;5.83;;;1.90;;
19679;SDS011;9989;48.962;9.182;2022-07-05T11:55:26;3.23;;;1.73;;
19679;SDS011;9989;48.962;9.182;2022-07-05T11:57:53;3.60;;;2.00;;
19679;SDS011;9989;48.962;9.182;2022-07-05T12:00:27;4.20;;;1.90;;
19679;SDS011;9989;48.962;9.182;2022-07-05T12:03:11;3.70;;;1.73;;
19679;SDS011;9989;48.962;9.182;2022-07-05T12:05:38;3.87;;;1.80;;
19679;SDS011;9989;48.962;9.182;2022-07-05T12:08:05;2.73;;;1.73;;
19679;SDS011;9989;48.962;9.182;2022-07-05T12:10:31;3.50;;;1.60;;
19679;SDS011;9989;48.962;9.182;2022-07-05T12:13:15;12.50;;;2.17;;
19679;SDS011;9989;48.962;9.182;2022-07-05T12:15:41;4.03;;;1.90;;
19679;SDS011;9989;48.962;9.182;2022-07-05T12:18:07;5.60;;;1.77;;
19679;SDS011;9989;48.962;9.182;2022-07-05T12:20:37;4.57;;;1.70;;
19679;SDS011;9989;48.962;9.182;2022-07-05T12:23:04;3.80;;;1.90;;
19679;SDS011;9989;48.962;9.182;2022-07-05T12:25:31;4.43;;;1.77;;
19679;SDS011;9989;48.962;9.182;2022-07-05T12:27:58;4.30;;;1.73;;
19679;SDS011;9989;48.962;9.182;2022-07-05T12:30:28;5.13;;;1.80;;
19679;SDS011;9989;48.962;9.182;2022-07-05T12:35:40;7.17;;;2.13;;
19679;SDS011;9989;48.962;9.182;2022-07-05T12:40:44;5.57;;;1.80;;
19679;SDS011;9989;48.962;9.182;2022-07-05T12:45:41;4.77;;;2.00;;
19679;SDS011;9989;48.962;9.182;2022-07-05T12:48:09;4.17;;;1.90;;
19679;SDS011;9989;48.962;9.182;2022-07-05T12:50:48;5.50;;;1.90;;
19679;SDS011;9989;48.962;9.182;2022-07-05T12:53:15;6.97;;;1.90;;
19679;SDS011;9989;48.962;9.182;2022-07-05T12:58:55;4.17;;;1.90;;
19679;SDS011;9989;48.962;9.182;2022-07-05T13:04:02;5.03;;;2.23;;
19679;SDS011;9989;48.962;9.182;2022-07-05T13:09:07;3.53;;;2.03;;
19679;SDS011;9989;48.962;9.182;2022-07-05T13:11:33;3.83;;;1.80;;
19679;SDS011;9989;48.962;9.182;2022-07-05T13:13:59;6.03;;;1.83;;
19679;SDS011;9989;48.962;9.182;2022-07-05T13:16:24;5.87;;;1.83;;
19679;SDS011;9989;48.962;9.182;2022-07-05T13:18:50;4.17;;;2.00;;
19679;SDS011;9989;48.962;9.182;2022-07-05T13:21:16;3.67;;;1.80;;
19679;SDS011;9989;48.962;9.182;2022-07-05T13:23:41;4.10;;;1.90;;
19679;SDS011;9989;48.962;9.182;2022-07-05T13:26:07;6.10;;;2.23;;
19679;SDS011;9989;48.962;9.182;2022-07-05T13:28:33;5.97;;;2.10;;
19679;SDS011;9989;48.962;9.182;2022-07-05T13:30:58;4.60;;;1.90;;
19679;SDS011;9989;48.962;9.182;2022-07-05T13:33:24;5.23;;;2.10;;
19679;SDS011;9989;48.962;9.182;2022-07-05T13:35:49;3.77;;;1.87;;
19679;SDS011;9989;48.962;9.182;2022-07-05T13:38:15;5.00;;;2.03;;
19679;SDS011;9989;48.962;9.182;2022-07-05T13:40:41;4.60;;;2.07;;
19679;SDS011;9989;48.962;9.182;2022-07-05T13:43:06;4.53;;;2.00;;
19679;SDS011;9989;48.962;9.182;2022-07-05T13:45:32;5.00;;;2.00;;
19679;SDS011;9989;48.962;9.182;2022-07-05T13:47:57;3.03;;;1.70;;
19679;SDS011;9989;48.962;9.182;2022-07-05T13:50:23;4.50;;;2.07;;
19679;SDS011;9989;48.962;9.182;2022-07-05T13:52:58;5.03;;;1.93;;
19679;SDS011;9989;48.962;9.182;2022-07-05T13:55:24;3.47;;;1.80;;
19679;SDS011;9989;48.962;9.182;2022-07-05T13:57:50;5.27;;;1.60;;
19679;SDS011;9989;48.962;9.182;2022-07-05T14:00:16;4.57;;;1.83;;
19679;SDS011;9989;48.962;9.182;2022-07-05T14:02:42;4.87;;;2.00;;
19679;SDS011;9989;48.962;9.182;2022-07-05T14:05:08;3.67;;;1.80;;
19679;SDS011;9989;48.962;9.182;2022-07-05T14:07:34;4.50;;;2.00;;
19679;SDS011;9989;48.962;9.182;2022-07-05T14:10:00;5.43;;;1.93;;
19679;SDS011;9989;48.962;9.182;2022-07-05T14:12:25;4.90;;;1.90;;
19679;SDS011;9989;48.962;9.182;2022-07-05T14:14:51;4.10;;;1.90;;
19679;SDS011;9989;48.962;9.182;2022-07-05T14:17:16;6.03;;;2.03;;
19679;SDS011;9989;48.962;9.182;2022-07-05T14:19:42;6.00;;;1.90;;
19679;SDS011;9989;48.962;9.182;2022-07-05T14:22:08;5.23;;;2.20;;
19679;SDS011;9989;48.962;9.182;2022-07-05T14:24:33;4.17;;;1.90;;
19679;SDS011;9989;48.962;9.182;2022-07-05T14:26:59;4.63;;;1.90;;
19679;SDS011;9989;48.962;9.182;2022-07-05T14:29:25;3.87;;;1.83;;
19679;SDS011;9989;48.962;9.182;2022-07-05T14:31:51;3.47;;;1.83;;
19679;SDS011;9989;48.962;9.182;2022-07-05T14:34:16;3.20;;;1.80;;
19679;SDS011;9989;48.962;9.182;2022-07-05T14:36:42;3.70;;;2.13;;
19679;SDS011;9989;48.962;9.182;2022-07-05T14:39:07;4.13;;;1.87;;
19679;SDS011;9989;48.962;9.182;2022-07-05T14:41:33;6.33;;;2.50;;
19679;SDS011;9989;48.962;9.182;2022-07-05T14:43:59;3.87;;;1.93;;
19679;SDS011;9989;48.962;9.182;2022-07-05T14:46:24;5.87;;;2.10;;
19679;SDS011;9989;48.962;9.182;2022-07-05T14:48:50;4.27;;;2.17;;
19679;SDS011;9989;48.962;9.182;2022-07-05T14:51:15;6.43;;;2.87;;
19679;SDS011;9989;48.962;9.182;2022-07-05T14:53:41;4.73;;;2.33;;
19679;SDS011;9989;48.962;9.182;2022-07-05T14:56:10;4.90;;;1.90;;
19679;SDS011;9989;48.962;9.182;2022-07-05T14:58:36;4.33;;;2.20;;
19679;SDS011;9989;48.962;9.182;2022-07-05T15:01:01;3.70;;;2.00;;
19679;SDS011;9989;48.962;9.182;2022-07-05T15:03:27;6.27;;;2.17;;
19679;SDS011;9989;48.962;9.182;2022-07-05T15:05:52;4.13;;;2.00;;
19679;SDS011;9989;48.962;9.182;2022-07-05T15:08:19;7.03;;;2.60;;
19679;SDS011;9989;48.962;9.182;2022-07-05T15:10:45;5.90;;;2.20;;
19679;SDS011;9989;48.962;9.182;2022-07-05T15:13:11;7.20;;;2.43;;
19679;SDS011;9989;48.962;9.182;2022-07-05T15:15:37;4.43;;;2.03;;
19679;SDS011;9989;48.962;9.182;2022-07-05T15:18:03;6.83;;;3.10;;
19679;SDS011;9989;48.962;9.182;2022-07-05T15:20:28;4.03;;;2.50;;
19679;SDS011;9989;48.962;9.182;2022-07-05T15:22:54;4.57;;;2.00;;
19679;SDS011;9989;48.962;9.182;2022-07-05T15:25:20;6.03;;;2.33;;
19679;SDS011;9989;48.962;9.182;2022-07-05T15:27:45;6.10;;;2.57;;
19679;SDS011;9989;48.962;9.182;2022-07-05T15:30:11;7.97;;;2.40;;
19679;SDS011;9989;48.962;9.182;2022-07-05T15:32:39;3.60;;;2.10;;
19679;SDS011;9989;48.962;9.182;2022-07-05T15:35:05;4.67;;;2.30;;
19679;SDS011;9989;48.962;9.182;2022-07-05T15:37:31;4.83;;;2.60;;
19679;SDS011;9989;48.962;9.182;2022-07-05T15:39:57;5.40;;;2.30;;
19679;SDS011;9989;48.962;9.182;2022-07-05T15:42:23;6.43;;;2.50;;
19679;SDS011;9989;48.962;9.182;2022-07-05T15:44:49;4.30;;;2.40;;
19679;SDS011;9989;48.962;9.182;2022-07-05T15:47:16;5.67;;;2.17;;
19679;SDS011;9989;48.962;9.182;2022-07-05T15:49:42;6.77;;;2.53;;
19679;SDS011;9989;48.962;9.182;2022-07-05T15:52:07;7.20;;;2.50;;
19679;SDS011;9989;48.962;9.182;2022-07-05T15:54:33;4.30;;;2.23;;
19679;SDS011;9989;48.962;9.182;2022-07-05T15:57:00;3.67;;;1.97;;
19679;SDS011;9989;48.962;9.182;2022-07-05T15:59:25;4.17;;;2.10;;